sensor_id;sensor_type;location;lat;lon;timestamp;P1;durP1;ratioP1;P2;durP2;ratioP2
15393;SDS011;7795;47.986;11.868;2023-12-07T00:00:26;6.30;;;5.70;;
15393;SDS011;7795;47.986;11.868;2023-12-07T00:02:52;6.03;;;5.43;;
15393;SDS011;7795;47.986;11.868;2023-12-07T00:05:17;6.37;;;5.73;;
15393;SDS011;7795;47.986;11.868;2023-12-07T00:07:43;6.27;;;5.67;;
15393;SDS011;7795;47.986;11.868;2023-12-07T00:10:09;7.37;;;5.87;;
15393;SDS011;7795;47.986;11.868;2023-12-07T00:12:35;6.17;;;5.57;;
15393;SDS011;7795;47.986;11.868;2023-12-07T00:15:01;5.80;;;5.30;;
15393;SDS011;7795;47.986;11.868;2023-12-07T00:17:29;5.90;;;5.40;;
15393;SDS011;7795;47.986;11.868;2023-12-07T00:19:54;6.03;;;5.43;;
15393;SDS011;7795;47.986;11.868;2023-12-07T00:22:20;5.43;;;4.93;;
15393;SDS011;7795;47.986;11.868;2023-12-07T00:24:46;6.30;;;5.47;;
15393;SDS011;7795;47.986;11.868;2023-12-07T00:27:12;7.13;;;5.97;;
15393;SDS011;7795;47.986;11.868;2023-12-07T00:29:38;6.43;;;5.83;;
15393;SDS011;7795;47.986;11.868;2023-12-07T00:32:04;6.00;;;5.40;;
15393;SDS011;7795;47.986;11.868;2023-12-07T00:34:31;5.80;;;5.30;;
15393;SDS011;7795;47.986;11.868;2023-12-07T00:36:57;6.00;;;5.40;;
15393;SDS011;7795;47.986;11.868;2023-12-07T00:39:23;7.27;;;5.70;;
15393;SDS011;7795;47.986;11.868;2023-12-07T00:41:48;6.13;;;5.47;;
15393;SDS011;7795;47.986;11.868;2023-12-07T00:44:14;6.47;;;5.87;;
15393;SDS011;7795;47.986;11.868;2023-12-07T00:46:40;6.90;;;6.20;;
15393;SDS011;7795;47.986;11.868;2023-12-07T00:49:05;6.30;;;5.70;;
15393;SDS011;7795;47.986;11.868;2023-12-07T00:51:32;5.97;;;5.40;;
15393;SDS011;7795;47.986;11.868;2023-12-07T00:53:59;6.13;;;5.53;;
15393;SDS011;7795;47.986;11.868;2023-12-07T00:56:24;6.27;;;5.50;;
15393;SDS011;7795;47.986;11.868;2023-12-07T00:58:50;6.23;;;5.63;;
15393;SDS011;7795;47.986;11.868;2023-12-07T01:01:16;6.90;;;6.03;;
15393;SDS011;7795;47.986;11.868;2023-12-07T01:03:41;5.97;;;5.37;;
15393;SDS011;7795;47.986;11.868;2023-12-07T01:06:07;6.30;;;5.70;;
15393;SDS011;7795;47.986;11.868;2023-12-07T01:08:36;5.97;;;5.37;;
15393;SDS011;7795;47.986;11.868;2023-12-07T01:11:02;6.40;;;5.73;;
15393;SDS011;7795;47.986;11.868;2023-12-07T01:13:28;6.40;;;5.80;;
15393;SDS011;7795;47.986;11.868;2023-12-07T01:15:54;7.00;;;6.40;;
15393;SDS011;7795;47.986;11.868;2023-12-07T01:18:20;6.37;;;5.77;;
15393;SDS011;7795;47.986;11.868;2023-12-07T01:20:46;6.40;;;5.80;;
15393;SDS011;7795;47.986;11.868;2023-12-07T01:23:13;6.67;;;5.97;;
15393;SDS011;7795;47.986;11.868;2023-12-07T01:25:40;5.83;;;5.23;;
15393;SDS011;7795;47.986;11.868;2023-12-07T01:28:05;6.53;;;5.90;;
15393;SDS011;7795;47.986;11.868;2023-12-07T01:30:31;6.33;;;5.73;;
15393;SDS011;7795;47.986;11.868;2023-12-07T01:32:57;5.97;;;5.37;;
15393;SDS011;7795;47.986;11.868;2023-12-07T01:35:25;6.83;;;6.13;;
15393;SDS011;7795;47.986;11.868;2023-12-07T01:37:51;6.97;;;6.23;;
15393;SDS011;7795;47.986;11.868;2023-12-07T01:40:17;6.20;;;5.60;;
15393;SDS011;7795;47.986;11.868;2023-12-07T01:42:50;13.20;;;6.37;;
15393;SDS011;7795;47.986;11.868;2023-12-07T01:45:16;6.17;;;5.57;;
15393;SDS011;7795;47.986;11.868;2023-12-07T01:47:42;6.63;;;5.90;;
15393;SDS011;7795;47.986;11.868;2023-12-07T01:50:09;6.63;;;6.03;;
15393;SDS011;7795;47.986;11.868;2023-12-07T01:52:35;7.30;;;5.77;;
15393;SDS011;7795;47.986;11.868;2023-12-07T01:55:05;7.90;;;6.43;;
15393;SDS011;7795;47.986;11.868;2023-12-07T01:57:33;6.30;;;5.70;;
15393;SDS011;7795;47.986;11.868;2023-12-07T02:00:00;6.27;;;5.67;;
15393;SDS011;7795;47.986;11.868;2023-12-07T02:02:26;7.00;;;6.30;;
15393;SDS011;7795;47.986;11.868;2023-12-07T02:04:52;7.73;;;6.93;;
15393;SDS011;7795;47.986;11.868;2023-12-07T02:07:18;7.50;;;6.80;;
15393;SDS011;7795;47.986;11.868;2023-12-07T02:09:44;7.63;;;6.83;;
15393;SDS011;7795;47.986;11.868;2023-12-07T02:12:10;6.63;;;5.90;;
15393;SDS011;7795;47.986;11.868;2023-12-07T02:14:36;8.00;;;7.20;;
15393;SDS011;7795;47.986;11.868;2023-12-07T02:17:07;8.17;;;7.37;;
15393;SDS011;7795;47.986;11.868;2023-12-07T02:19:46;7.67;;;6.97;;
15393;SDS011;7795;47.986;11.868;2023-12-07T02:22:18;6.97;;;6.27;;
15393;SDS011;7795;47.986;11.868;2023-12-07T02:24:53;7.53;;;6.73;;
15393;SDS011;7795;47.986;11.868;2023-12-07T02:27:38;7.67;;;6.73;;
15393;SDS011;7795;47.986;11.868;2023-12-07T02:30:05;7.40;;;6.60;;
15393;SDS011;7795;47.986;11.868;2023-12-07T02:32:32;8.60;;;7.33;;
15393;SDS011;7795;47.986;11.868;2023-12-07T02:34:59;8.67;;;7.77;;
15393;SDS011;7795;47.986;11.868;2023-12-07T02:37:25;7.07;;;6.37;;
15393;SDS011;7795;47.986;11.868;2023-12-07T02:39:53;8.00;;;7.03;;
15393;SDS011;7795;47.986;11.868;2023-12-07T02:42:20;8.30;;;7.50;;
15393;SDS011;7795;47.986;11.868;2023-12-07T02:44:51;8.50;;;7.67;;
15393;SDS011;7795;47.986;11.868;2023-12-07T02:47:18;8.40;;;7.47;;
15393;SDS011;7795;47.986;11.868;2023-12-07T02:49:44;7.27;;;6.57;;
15393;SDS011;7795;47.986;11.868;2023-12-07T02:52:10;6.83;;;6.23;;
15393;SDS011;7795;47.986;11.868;2023-12-07T02:54:35;7.83;;;6.97;;
15393;SDS011;7795;47.986;11.868;2023-12-07T02:57:01;7.47;;;6.67;;
15393;SDS011;7795;47.986;11.868;2023-12-07T02:59:27;8.03;;;7.10;;
15393;SDS011;7795;47.986;11.868;2023-12-07T03:01:54;8.23;;;6.90;;
15393;SDS011;7795;47.986;11.868;2023-12-07T03:04:20;8.17;;;6.40;;
15393;SDS011;7795;47.986;11.868;2023-12-07T03:06:46;7.67;;;6.83;;
15393;SDS011;7795;47.986;11.868;2023-12-07T03:09:11;8.60;;;7.13;;
15393;SDS011;7795;47.986;11.868;2023-12-07T03:11:37;7.87;;;7.07;;
15393;SDS011;7795;47.986;11.868;2023-12-07T03:14:03;8.53;;;7.73;;
15393;SDS011;7795;47.986;11.868;2023-12-07T03:16:29;8.17;;;7.27;;
15393;SDS011;7795;47.986;11.868;2023-12-07T03:18:56;8.37;;;7.20;;
15393;SDS011;7795;47.986;11.868;2023-12-07T03:21:21;7.57;;;6.37;;
15393;SDS011;7795;47.986;11.868;2023-12-07T03:23:47;8.17;;;7.37;;
15393;SDS011;7795;47.986;11.868;2023-12-07T03:26:14;8.50;;;7.60;;
15393;SDS011;7795;47.986;11.868;2023-12-07T03:28:40;9.27;;;7.87;;
15393;SDS011;7795;47.986;11.868;2023-12-07T03:31:06;8.43;;;7.30;;
15393;SDS011;7795;47.986;11.868;2023-12-07T03:33:32;8.13;;;7.33;;
15393;SDS011;7795;47.986;11.868;2023-12-07T03:35:59;8.80;;;7.90;;
15393;SDS011;7795;47.986;11.868;2023-12-07T03:38:24;9.50;;;7.50;;
15393;SDS011;7795;47.986;11.868;2023-12-07T03:40:50;9.40;;;8.30;;
15393;SDS011;7795;47.986;11.868;2023-12-07T03:43:17;9.03;;;7.90;;
15393;SDS011;7795;47.986;11.868;2023-12-07T03:45:44;8.40;;;7.50;;
15393;SDS011;7795;47.986;11.868;2023-12-07T03:48:10;10.77;;;7.97;;
15393;SDS011;7795;47.986;11.868;2023-12-07T03:50:35;11.43;;;8.03;;
15393;SDS011;7795;47.986;11.868;2023-12-07T03:53:02;8.93;;;8.03;;
15393;SDS011;7795;47.986;11.868;2023-12-07T03:55:28;8.67;;;7.37;;
15393;SDS011;7795;47.986;11.868;2023-12-07T03:57:54;8.50;;;7.60;;
15393;SDS011;7795;47.986;11.868;2023-12-07T04:00:20;8.33;;;7.43;;
15393;SDS011;7795;47.986;11.868;2023-12-07T04:02:46;8.20;;;7.33;;
15393;SDS011;7795;47.986;11.868;2023-12-07T04:05:12;8.43;;;7.33;;
15393;SDS011;7795;47.986;11.868;2023-12-07T04:07:38;9.47;;;8.00;;
15393;SDS011;7795;47.986;11.868;2023-12-07T04:10:05;8.43;;;7.63;;
15393;SDS011;7795;47.986;11.868;2023-12-07T04:12:32;8.40;;;7.17;;
15393;SDS011;7795;47.986;11.868;2023-12-07T04:14:57;10.03;;;7.80;;
15393;SDS011;7795;47.986;11.868;2023-12-07T04:17:23;8.07;;;7.27;;
15393;SDS011;7795;47.986;11.868;2023-12-07T04:19:49;8.13;;;7.30;;
15393;SDS011;7795;47.986;11.868;2023-12-07T04:22:14;7.80;;;7.00;;
15393;SDS011;7795;47.986;11.868;2023-12-07T04:24:40;8.47;;;7.60;;
15393;SDS011;7795;47.986;11.868;2023-12-07T04:27:07;7.17;;;6.47;;
15393;SDS011;7795;47.986;11.868;2023-12-07T04:29:33;8.93;;;8.03;;
15393;SDS011;7795;47.986;11.868;2023-12-07T04:31:59;8.33;;;7.47;;
15393;SDS011;7795;47.986;11.868;2023-12-07T04:34:25;9.97;;;7.43;;
15393;SDS011;7795;47.986;11.868;2023-12-07T04:36:51;8.70;;;7.80;;
15393;SDS011;7795;47.986;11.868;2023-12-07T04:39:16;7.93;;;6.23;;
15393;SDS011;7795;47.986;11.868;2023-12-07T04:41:42;9.93;;;7.40;;
15393;SDS011;7795;47.986;11.868;2023-12-07T04:44:09;9.40;;;8.33;;
15393;SDS011;7795;47.986;11.868;2023-12-07T04:46:35;10.07;;;7.13;;
15393;SDS011;7795;47.986;11.868;2023-12-07T04:49:01;8.23;;;6.93;;
15393;SDS011;7795;47.986;11.868;2023-12-07T04:51:27;10.97;;;7.10;;
15393;SDS011;7795;47.986;11.868;2023-12-07T04:53:52;10.07;;;7.70;;
15393;SDS011;7795;47.986;11.868;2023-12-07T04:56:18;7.93;;;6.83;;
15393;SDS011;7795;47.986;11.868;2023-12-07T04:58:44;11.00;;;7.73;;
15393;SDS011;7795;47.986;11.868;2023-12-07T05:01:11;7.77;;;6.67;;
15393;SDS011;7795;47.986;11.868;2023-12-07T05:03:37;8.57;;;7.40;;
15393;SDS011;7795;47.986;11.868;2023-12-07T05:06:03;8.27;;;7.03;;
15393;SDS011;7795;47.986;11.868;2023-12-07T05:08:29;9.00;;;7.73;;
15393;SDS011;7795;47.986;11.868;2023-12-07T05:10:54;8.53;;;7.63;;
15393;SDS011;7795;47.986;11.868;2023-12-07T05:13:20;8.00;;;6.77;;
15393;SDS011;7795;47.986;11.868;2023-12-07T05:15:46;8.17;;;7.10;;
15393;SDS011;7795;47.986;11.868;2023-12-07T05:18:13;8.10;;;7.30;;
15393;SDS011;7795;47.986;11.868;2023-12-07T05:20:39;9.03;;;7.67;;
15393;SDS011;7795;47.986;11.868;2023-12-07T05:23:04;13.47;;;8.23;;
15393;SDS011;7795;47.986;11.868;2023-12-07T05:25:31;7.90;;;7.00;;
15393;SDS011;7795;47.986;11.868;2023-12-07T05:27:57;7.67;;;6.87;;
15393;SDS011;7795;47.986;11.868;2023-12-07T05:30:23;8.30;;;7.27;;
15393;SDS011;7795;47.986;11.868;2023-12-07T05:32:48;8.77;;;7.30;;
15393;SDS011;7795;47.986;11.868;2023-12-07T05:35:16;9.60;;;7.73;;
15393;SDS011;7795;47.986;11.868;2023-12-07T05:37:42;10.13;;;8.00;;
15393;SDS011;7795;47.986;11.868;2023-12-07T05:40:08;10.03;;;7.37;;
15393;SDS011;7795;47.986;11.868;2023-12-07T05:42:37;9.67;;;7.57;;
15393;SDS011;7795;47.986;11.868;2023-12-07T05:45:03;10.27;;;8.90;;
15393;SDS011;7795;47.986;11.868;2023-12-07T05:47:31;8.97;;;7.97;;
15393;SDS011;7795;47.986;11.868;2023-12-07T05:49:57;8.07;;;7.27;;
15393;SDS011;7795;47.986;11.868;2023-12-07T05:52:26;9.10;;;8.07;;
15393;SDS011;7795;47.986;11.868;2023-12-07T05:54:52;9.33;;;7.10;;
15393;SDS011;7795;47.986;11.868;2023-12-07T05:57:17;7.70;;;6.93;;
15393;SDS011;7795;47.986;11.868;2023-12-07T05:59:43;9.10;;;7.57;;
15393;SDS011;7795;47.986;11.868;2023-12-07T06:02:09;7.80;;;7.00;;
15393;SDS011;7795;47.986;11.868;2023-12-07T06:04:35;7.57;;;6.73;;
15393;SDS011;7795;47.986;11.868;2023-12-07T06:07:01;9.53;;;7.17;;
15393;SDS011;7795;47.986;11.868;2023-12-07T06:09:28;9.50;;;7.47;;
15393;SDS011;7795;47.986;11.868;2023-12-07T06:11:54;7.97;;;6.90;;
15393;SDS011;7795;47.986;11.868;2023-12-07T06:14:20;8.37;;;7.10;;
15393;SDS011;7795;47.986;11.868;2023-12-07T06:16:48;8.73;;;7.10;;
15393;SDS011;7795;47.986;11.868;2023-12-07T06:19:13;20.83;;;8.40;;
15393;SDS011;7795;47.986;11.868;2023-12-07T06:21:39;8.97;;;8.07;;
15393;SDS011;7795;47.986;11.868;2023-12-07T06:24:05;7.77;;;6.53;;
15393;SDS011;7795;47.986;11.868;2023-12-07T06:26:33;9.00;;;7.83;;
15393;SDS011;7795;47.986;11.868;2023-12-07T06:28:59;10.37;;;8.63;;
15393;SDS011;7795;47.986;11.868;2023-12-07T06:31:24;12.13;;;9.07;;
15393;SDS011;7795;47.986;11.868;2023-12-07T06:33:51;12.20;;;9.83;;
15393;SDS011;7795;47.986;11.868;2023-12-07T06:36:20;9.87;;;8.60;;
15393;SDS011;7795;47.986;11.868;2023-12-07T06:38:46;10.83;;;9.13;;
15393;SDS011;7795;47.986;11.868;2023-12-07T06:41:12;11.93;;;9.40;;
15393;SDS011;7795;47.986;11.868;2023-12-07T06:43:40;9.67;;;7.67;;
15393;SDS011;7795;47.986;11.868;2023-12-07T06:46:06;11.23;;;9.37;;
15393;SDS011;7795;47.986;11.868;2023-12-07T06:48:31;11.83;;;8.90;;
15393;SDS011;7795;47.986;11.868;2023-12-07T06:50:57;9.73;;;8.50;;
15393;SDS011;7795;47.986;11.868;2023-12-07T06:53:23;10.13;;;8.47;;
15393;SDS011;7795;47.986;11.868;2023-12-07T06:55:49;9.87;;;8.53;;
15393;SDS011;7795;47.986;11.868;2023-12-07T06:58:14;13.67;;;9.30;;
15393;SDS011;7795;47.986;11.868;2023-12-07T07:00:41;9.93;;;8.90;;
15393;SDS011;7795;47.986;11.868;2023-12-07T07:03:07;10.60;;;9.50;;
15393;SDS011;7795;47.986;11.868;2023-12-07T07:05:33;10.23;;;9.17;;
15393;SDS011;7795;47.986;11.868;2023-12-07T07:07:59;11.20;;;9.73;;
15393;SDS011;7795;47.986;11.868;2023-12-07T07:10:24;14.67;;;10.40;;
15393;SDS011;7795;47.986;11.868;2023-12-07T07:12:50;11.27;;;8.67;;
15393;SDS011;7795;47.986;11.868;2023-12-07T07:15:16;9.97;;;7.93;;
15393;SDS011;7795;47.986;11.868;2023-12-07T07:17:43;20.40;;;8.50;;
15393;SDS011;7795;47.986;11.868;2023-12-07T07:20:09;7.47;;;6.67;;
15393;SDS011;7795;47.986;11.868;2023-12-07T07:22:35;9.07;;;6.17;;
15393;SDS011;7795;47.986;11.868;2023-12-07T07:25:01;8.93;;;5.83;;
15393;SDS011;7795;47.986;11.868;2023-12-07T07:27:27;6.37;;;5.20;;
15393;SDS011;7795;47.986;11.868;2023-12-07T07:29:53;5.37;;;4.73;;
15393;SDS011;7795;47.986;11.868;2023-12-07T07:32:19;4.67;;;4.07;;
15393;SDS011;7795;47.986;11.868;2023-12-07T07:34:46;6.77;;;4.60;;
15393;SDS011;7795;47.986;11.868;2023-12-07T07:37:11;5.97;;;4.30;;
15393;SDS011;7795;47.986;11.868;2023-12-07T07:39:37;9.30;;;4.53;;
15393;SDS011;7795;47.986;11.868;2023-12-07T07:42:03;22.23;;;5.50;;
15393;SDS011;7795;47.986;11.868;2023-12-07T07:44:29;9.77;;;4.83;;
15393;SDS011;7795;47.986;11.868;2023-12-07T07:46:55;5.33;;;4.03;;
15393;SDS011;7795;47.986;11.868;2023-12-07T07:49:22;5.57;;;4.40;;
15393;SDS011;7795;47.986;11.868;2023-12-07T07:51:49;5.07;;;4.27;;
15393;SDS011;7795;47.986;11.868;2023-12-07T07:54:16;7.03;;;4.87;;
15393;SDS011;7795;47.986;11.868;2023-12-07T07:56:42;5.77;;;4.70;;
15393;SDS011;7795;47.986;11.868;2023-12-07T07:59:08;5.53;;;4.27;;
15393;SDS011;7795;47.986;11.868;2023-12-07T08:01:34;4.37;;;3.57;;
15393;SDS011;7795;47.986;11.868;2023-12-07T08:04:00;3.90;;;3.50;;
15393;SDS011;7795;47.986;11.868;2023-12-07T08:06:25;6.07;;;5.50;;
15393;SDS011;7795;47.986;11.868;2023-12-07T08:08:52;5.67;;;5.07;;
15393;SDS011;7795;47.986;11.868;2023-12-07T08:11:18;4.40;;;4.00;;
15393;SDS011;7795;47.986;11.868;2023-12-07T08:13:44;6.00;;;4.47;;
15393;SDS011;7795;47.986;11.868;2023-12-07T08:16:10;3.70;;;3.33;;
15393;SDS011;7795;47.986;11.868;2023-12-07T08:18:36;3.70;;;3.40;;
15393;SDS011;7795;47.986;11.868;2023-12-07T08:21:01;3.70;;;3.40;;
15393;SDS011;7795;47.986;11.868;2023-12-07T08:23:27;3.67;;;3.30;;
15393;SDS011;7795;47.986;11.868;2023-12-07T08:25:54;3.77;;;3.23;;
15393;SDS011;7795;47.986;11.868;2023-12-07T08:28:22;4.40;;;4.00;;
15393;SDS011;7795;47.986;11.868;2023-12-07T08:30:48;3.80;;;3.50;;
15393;SDS011;7795;47.986;11.868;2023-12-07T08:33:13;4.50;;;3.83;;
15393;SDS011;7795;47.986;11.868;2023-12-07T08:35:39;3.93;;;3.57;;
15393;SDS011;7795;47.986;11.868;2023-12-07T08:38:05;4.23;;;3.83;;
15393;SDS011;7795;47.986;11.868;2023-12-07T08:40:31;4.93;;;4.43;;
15393;SDS011;7795;47.986;11.868;2023-12-07T08:42:58;6.97;;;5.30;;
15393;SDS011;7795;47.986;11.868;2023-12-07T08:45:24;5.37;;;4.70;;
15393;SDS011;7795;47.986;11.868;2023-12-07T08:47:49;6.33;;;5.40;;
15393;SDS011;7795;47.986;11.868;2023-12-07T08:50:15;5.63;;;5.07;;
15393;SDS011;7795;47.986;11.868;2023-12-07T08:52:41;5.30;;;4.80;;
15393;SDS011;7795;47.986;11.868;2023-12-07T08:55:07;5.27;;;4.73;;
15393;SDS011;7795;47.986;11.868;2023-12-07T08:57:33;6.50;;;5.30;;
15393;SDS011;7795;47.986;11.868;2023-12-07T09:00:00;6.03;;;5.43;;
15393;SDS011;7795;47.986;11.868;2023-12-07T09:02:25;5.47;;;4.97;;
15393;SDS011;7795;47.986;11.868;2023-12-07T09:04:51;6.60;;;5.30;;
15393;SDS011;7795;47.986;11.868;2023-12-07T09:07:17;6.60;;;5.67;;
15393;SDS011;7795;47.986;11.868;2023-12-07T09:09:43;7.47;;;6.67;;
15393;SDS011;7795;47.986;11.868;2023-12-07T09:12:12;13.37;;;10.37;;
15393;SDS011;7795;47.986;11.868;2023-12-07T09:14:38;13.17;;;11.77;;
15393;SDS011;7795;47.986;11.868;2023-12-07T09:17:05;16.20;;;14.07;;
15393;SDS011;7795;47.986;11.868;2023-12-07T09:19:30;16.63;;;13.37;;
15393;SDS011;7795;47.986;11.868;2023-12-07T09:21:56;13.50;;;11.93;;
15393;SDS011;7795;47.986;11.868;2023-12-07T09:24:23;14.47;;;12.93;;
15393;SDS011;7795;47.986;11.868;2023-12-07T09:26:49;13.20;;;10.93;;
15393;SDS011;7795;47.986;11.868;2023-12-07T09:29:15;17.67;;;11.40;;
15393;SDS011;7795;47.986;11.868;2023-12-07T09:31:40;13.57;;;12.17;;
15393;SDS011;7795;47.986;11.868;2023-12-07T09:34:08;11.10;;;9.87;;
15393;SDS011;7795;47.986;11.868;2023-12-07T09:36:33;9.83;;;8.83;;
15393;SDS011;7795;47.986;11.868;2023-12-07T09:38:59;9.83;;;8.83;;
15393;SDS011;7795;47.986;11.868;2023-12-07T09:41:25;10.27;;;9.20;;
15393;SDS011;7795;47.986;11.868;2023-12-07T09:43:52;8.93;;;8.03;;
15393;SDS011;7795;47.986;11.868;2023-12-07T09:46:18;8.73;;;7.87;;
15393;SDS011;7795;47.986;11.868;2023-12-07T09:48:44;8.70;;;7.30;;
15393;SDS011;7795;47.986;11.868;2023-12-07T09:51:15;8.73;;;7.83;;
15393;SDS011;7795;47.986;11.868;2023-12-07T09:53:42;8.90;;;8.00;;
15393;SDS011;7795;47.986;11.868;2023-12-07T09:56:09;9.37;;;7.67;;
15393;SDS011;7795;47.986;11.868;2023-12-07T09:58:35;8.80;;;7.90;;
15393;SDS011;7795;47.986;11.868;2023-12-07T10:01:01;9.13;;;7.03;;
15393;SDS011;7795;47.986;11.868;2023-12-07T10:03:27;8.10;;;6.97;;
15393;SDS011;7795;47.986;11.868;2023-12-07T10:05:53;7.63;;;6.93;;
15393;SDS011;7795;47.986;11.868;2023-12-07T10:08:28;8.67;;;6.93;;
15393;SDS011;7795;47.986;11.868;2023-12-07T10:11:04;8.27;;;7.23;;
15393;SDS011;7795;47.986;11.868;2023-12-07T10:13:31;9.27;;;6.80;;
15393;SDS011;7795;47.986;11.868;2023-12-07T10:16:04;8.17;;;6.93;;
15393;SDS011;7795;47.986;11.868;2023-12-07T10:18:34;7.13;;;6.43;;
15393;SDS011;7795;47.986;11.868;2023-12-07T10:21:01;7.73;;;6.47;;
15393;SDS011;7795;47.986;11.868;2023-12-07T10:23:29;7.67;;;6.67;;
15393;SDS011;7795;47.986;11.868;2023-12-07T10:25:57;6.87;;;6.17;;
15393;SDS011;7795;47.986;11.868;2023-12-07T10:28:24;8.07;;;6.03;;
15393;SDS011;7795;47.986;11.868;2023-12-07T10:30:49;5.63;;;5.10;;
15393;SDS011;7795;47.986;11.868;2023-12-07T10:33:16;11.37;;;5.93;;
15393;SDS011;7795;47.986;11.868;2023-12-07T10:35:44;8.10;;;5.90;;
15393;SDS011;7795;47.986;11.868;2023-12-07T10:38:10;5.90;;;5.30;;
15393;SDS011;7795;47.986;11.868;2023-12-07T10:40:39;5.97;;;5.37;;
15393;SDS011;7795;47.986;11.868;2023-12-07T10:43:05;7.53;;;5.30;;
15393;SDS011;7795;47.986;11.868;2023-12-07T10:45:32;5.53;;;4.93;;
15393;SDS011;7795;47.986;11.868;2023-12-07T10:48:00;5.43;;;4.90;;
15393;SDS011;7795;47.986;11.868;2023-12-07T10:50:30;5.03;;;4.53;;
15393;SDS011;7795;47.986;11.868;2023-12-07T10:52:59;6.40;;;4.10;;
15393;SDS011;7795;47.986;11.868;2023-12-07T10:55:32;5.73;;;3.80;;
15393;SDS011;7795;47.986;11.868;2023-12-07T10:58:08;4.63;;;3.67;;
15393;SDS011;7795;47.986;11.868;2023-12-07T11:00:35;4.73;;;4.00;;
15393;SDS011;7795;47.986;11.868;2023-12-07T11:03:01;5.97;;;4.23;;
15393;SDS011;7795;47.986;11.868;2023-12-07T11:05:27;3.57;;;3.27;;
15393;SDS011;7795;47.986;11.868;2023-12-07T11:07:55;3.83;;;3.07;;
15393;SDS011;7795;47.986;11.868;2023-12-07T11:10:27;4.90;;;3.43;;
15393;SDS011;7795;47.986;11.868;2023-12-07T11:13:07;3.60;;;3.30;;
15393;SDS011;7795;47.986;11.868;2023-12-07T11:15:38;4.23;;;3.70;;
15393;SDS011;7795;47.986;11.868;2023-12-07T11:18:04;4.80;;;4.07;;
15393;SDS011;7795;47.986;11.868;2023-12-07T11:20:39;5.80;;;4.37;;
15393;SDS011;7795;47.986;11.868;2023-12-07T11:23:07;4.33;;;3.90;;
15393;SDS011;7795;47.986;11.868;2023-12-07T11:25:33;4.00;;;3.60;;
15393;SDS011;7795;47.986;11.868;2023-12-07T11:28:04;4.77;;;4.00;;
15393;SDS011;7795;47.986;11.868;2023-12-07T11:30:31;4.43;;;3.43;;
15393;SDS011;7795;47.986;11.868;2023-12-07T11:32:58;3.30;;;2.97;;
15393;SDS011;7795;47.986;11.868;2023-12-07T11:35:24;3.00;;;2.70;;
15393;SDS011;7795;47.986;11.868;2023-12-07T11:38:00;3.63;;;3.27;;
15393;SDS011;7795;47.986;11.868;2023-12-07T11:40:28;4.13;;;3.10;;
15393;SDS011;7795;47.986;11.868;2023-12-07T11:42:55;4.07;;;3.67;;
15393;SDS011;7795;47.986;11.868;2023-12-07T11:48:18;4.10;;;3.40;;
15393;SDS011;7795;47.986;11.868;2023-12-07T11:50:56;3.33;;;3.03;;
15393;SDS011;7795;47.986;11.868;2023-12-07T11:53:24;4.73;;;3.50;;
15393;SDS011;7795;47.986;11.868;2023-12-07T11:55:50;5.53;;;3.13;;
15393;SDS011;7795;47.986;11.868;2023-12-07T11:58:16;3.30;;;3.00;;
15393;SDS011;7795;47.986;11.868;2023-12-07T12:00:43;4.10;;;3.10;;
15393;SDS011;7795;47.986;11.868;2023-12-07T12:03:11;3.00;;;2.80;;
15393;SDS011;7795;47.986;11.868;2023-12-07T12:05:39;3.00;;;2.70;;
15393;SDS011;7795;47.986;11.868;2023-12-07T12:08:05;4.30;;;2.63;;
15393;SDS011;7795;47.986;11.868;2023-12-07T12:10:31;2.83;;;2.63;;
15393;SDS011;7795;47.986;11.868;2023-12-07T12:12:57;3.73;;;3.13;;
15393;SDS011;7795;47.986;11.868;2023-12-07T12:15:25;4.03;;;3.23;;
15393;SDS011;7795;47.986;11.868;2023-12-07T12:17:52;3.90;;;3.27;;
15393;SDS011;7795;47.986;11.868;2023-12-07T12:20:18;3.47;;;3.07;;
15393;SDS011;7795;47.986;11.868;2023-12-07T12:22:45;3.50;;;3.20;;
15393;SDS011;7795;47.986;11.868;2023-12-07T12:25:11;3.80;;;3.50;;
15393;SDS011;7795;47.986;11.868;2023-12-07T12:27:37;3.97;;;3.67;;
15393;SDS011;7795;47.986;11.868;2023-12-07T12:30:04;3.43;;;3.13;;
15393;SDS011;7795;47.986;11.868;2023-12-07T12:32:33;3.63;;;3.33;;
15393;SDS011;7795;47.986;11.868;2023-12-07T12:35:08;4.27;;;3.87;;
15393;SDS011;7795;47.986;11.868;2023-12-07T12:37:33;3.83;;;3.50;;
15393;SDS011;7795;47.986;11.868;2023-12-07T12:40:05;4.40;;;4.00;;
15393;SDS011;7795;47.986;11.868;2023-12-07T12:42:32;3.70;;;3.40;;
15393;SDS011;7795;47.986;11.868;2023-12-07T12:44:58;4.90;;;3.53;;
15393;SDS011;7795;47.986;11.868;2023-12-07T12:47:23;3.60;;;3.30;;
15393;SDS011;7795;47.986;11.868;2023-12-07T12:49:50;4.50;;;3.93;;
15393;SDS011;7795;47.986;11.868;2023-12-07T12:52:16;4.53;;;4.13;;
15393;SDS011;7795;47.986;11.868;2023-12-07T12:54:42;4.00;;;3.70;;
15393;SDS011;7795;47.986;11.868;2023-12-07T12:57:09;3.73;;;3.43;;
15393;SDS011;7795;47.986;11.868;2023-12-07T12:59:35;3.83;;;3.53;;
15393;SDS011;7795;47.986;11.868;2023-12-07T13:02:01;5.27;;;3.80;;
15393;SDS011;7795;47.986;11.868;2023-12-07T13:04:29;4.10;;;3.70;;
15393;SDS011;7795;47.986;11.868;2023-12-07T13:06:55;4.07;;;3.70;;
15393;SDS011;7795;47.986;11.868;2023-12-07T13:09:21;4.23;;;3.83;;
15393;SDS011;7795;47.986;11.868;2023-12-07T13:11:47;4.33;;;3.93;;
15393;SDS011;7795;47.986;11.868;2023-12-07T13:14:15;4.57;;;4.03;;
15393;SDS011;7795;47.986;11.868;2023-12-07T13:16:42;4.63;;;4.23;;
15393;SDS011;7795;47.986;11.868;2023-12-07T13:19:08;4.70;;;4.30;;
15393;SDS011;7795;47.986;11.868;2023-12-07T13:21:34;5.47;;;4.97;;
15393;SDS011;7795;47.986;11.868;2023-12-07T13:23:59;4.63;;;4.20;;
15393;SDS011;7795;47.986;11.868;2023-12-07T13:26:25;5.80;;;5.13;;
15393;SDS011;7795;47.986;11.868;2023-12-07T13:28:51;8.33;;;7.63;;
15393;SDS011;7795;47.986;11.868;2023-12-07T13:31:19;7.63;;;6.93;;
15393;SDS011;7795;47.986;11.868;2023-12-07T13:33:45;7.83;;;6.83;;
15393;SDS011;7795;47.986;11.868;2023-12-07T13:36:11;5.67;;;5.07;;
15393;SDS011;7795;47.986;11.868;2023-12-07T13:38:37;5.97;;;5.40;;
15393;SDS011;7795;47.986;11.868;2023-12-07T13:41:02;4.80;;;4.40;;
15393;SDS011;7795;47.986;11.868;2023-12-07T13:43:28;5.83;;;5.00;;
15393;SDS011;7795;47.986;11.868;2023-12-07T13:45:54;5.37;;;4.73;;
15393;SDS011;7795;47.986;11.868;2023-12-07T13:48:21;5.77;;;5.17;;
15393;SDS011;7795;47.986;11.868;2023-12-07T13:50:47;5.37;;;4.73;;
15393;SDS011;7795;47.986;11.868;2023-12-07T13:53:13;7.80;;;7.00;;
15393;SDS011;7795;47.986;11.868;2023-12-07T13:55:39;6.03;;;5.43;;
15393;SDS011;7795;47.986;11.868;2023-12-07T13:58:05;6.47;;;5.77;;
15393;SDS011;7795;47.986;11.868;2023-12-07T14:00:35;5.10;;;4.60;;
15393;SDS011;7795;47.986;11.868;2023-12-07T14:03:02;5.97;;;5.37;;
15393;SDS011;7795;47.986;11.868;2023-12-07T14:05:32;7.60;;;6.27;;
15393;SDS011;7795;47.986;11.868;2023-12-07T14:07:58;5.73;;;5.03;;
15393;SDS011;7795;47.986;11.868;2023-12-07T14:10:23;7.33;;;6.33;;
15393;SDS011;7795;47.986;11.868;2023-12-07T14:12:49;6.57;;;5.90;;
15393;SDS011;7795;47.986;11.868;2023-12-07T14:15:15;7.30;;;5.93;;
15393;SDS011;7795;47.986;11.868;2023-12-07T14:17:41;7.60;;;6.33;;
15393;SDS011;7795;47.986;11.868;2023-12-07T14:20:07;7.23;;;5.63;;
15393;SDS011;7795;47.986;11.868;2023-12-07T14:22:34;6.70;;;6.00;;
15393;SDS011;7795;47.986;11.868;2023-12-07T14:25:00;7.67;;;5.70;;
15393;SDS011;7795;47.986;11.868;2023-12-07T14:27:26;6.47;;;5.80;;
15393;SDS011;7795;47.986;11.868;2023-12-07T14:29:52;13.57;;;9.73;;
15393;SDS011;7795;47.986;11.868;2023-12-07T14:32:18;8.27;;;6.43;;
15393;SDS011;7795;47.986;11.868;2023-12-07T14:34:44;8.00;;;5.90;;
15393;SDS011;7795;47.986;11.868;2023-12-07T14:37:10;6.67;;;5.77;;
15393;SDS011;7795;47.986;11.868;2023-12-07T14:39:37;6.50;;;5.90;;
15393;SDS011;7795;47.986;11.868;2023-12-07T14:42:04;8.63;;;6.50;;
15393;SDS011;7795;47.986;11.868;2023-12-07T14:44:31;7.00;;;5.70;;